createdAt,value
2018-02-13T15:56:32.562Z,48.83
2018-02-13T15:59:00.011Z,50.87
2018-02-13T16:01:27.414Z,46.70
2018-02-13T16:03:54.793Z,47.60
2018-02-13T16:06:22.256Z,50.20
2018-02-13T16:08:49.695Z,54.57
2018-02-13T16:11:17.409Z,54.00
2018-02-13T16:13:44.873Z,50.50
2018-02-13T16:16:12.271Z,47.20
2018-02-13T16:18:39.673Z,49.00
2018-02-13T16:21:07.085Z,47.87
2018-02-13T16:23:34.470Z,41.33
2018-02-13T16:26:02.042Z,35.37
2018-02-13T16:28:29.449Z,40.27
2018-02-13T16:30:56.902Z,43.40
2018-02-13T16:33:24.419Z,42.97
2018-02-13T16:35:51.813Z,37.33
2018-02-13T16:38:19.268Z,35.30
2018-02-13T16:40:46.742Z,50.93
2018-02-13T16:43:14.144Z,42.80
2018-02-13T16:45:41.550Z,38.77
2018-02-13T16:48:08.941Z,40.03
2018-02-13T16:50:36.346Z,35.73
2018-02-13T16:53:04.110Z,39.27
2018-02-13T16:55:31.503Z,37.53
2018-02-13T16:57:58.935Z,33.13
2018-02-13T17:00:26.325Z,34.07
2018-02-13T17:02:53.714Z,38.13
2018-02-13T17:05:21.162Z,34.80
2018-02-13T17:07:48.594Z,35.83
2018-02-13T17:10:15.981Z,42.03
2018-02-13T17:12:43.377Z,44.63
2018-02-13T17:15:10.793Z,43.80
2018-02-13T17:17:38.204Z,48.67
2018-02-13T17:20:05.642Z,50.43
2018-02-13T17:22:33.026Z,41.33
2018-02-13T17:25:00.417Z,40.10
2018-02-13T17:27:27.885Z,42.03
2018-02-13T17:29:55.343Z,42.77
2018-02-13T17:32:22.784Z,42.60
2018-02-13T17:34:50.206Z,45.27
2018-02-13T17:37:17.678Z,44.47
2018-02-13T17:39:45.070Z,43.97
2018-02-13T17:42:12.566Z,46.17
2018-02-13T17:44:39.970Z,46.47
2018-02-13T17:47:07.470Z,41.40
2018-02-13T17:49:34.893Z,47.33
2018-02-13T17:52:02.368Z,46.20
2018-02-13T17:54:29.793Z,46.17
2018-02-13T17:56:57.241Z,48.17
2018-02-13T17:59:24.626Z,49.00
2018-02-13T18:01:52.018Z,44.43
2018-02-13T18:04:19.471Z,41.93
2018-02-13T18:06:46.897Z,46.50
2018-02-13T18:09:14.305Z,43.53
2018-02-13T18:11:41.801Z,47.87
2018-02-13T18:14:09.209Z,47.33
2018-02-13T18:16:36.613Z,52.03
2018-02-13T18:19:04.002Z,52.40
2018-02-13T18:21:31.450Z,54.60
2018-02-13T18:23:58.850Z,61.23
2018-02-13T18:26:26.359Z,52.87
2018-02-13T18:28:53.775Z,51.83
2018-02-13T18:31:21.164Z,60.47
2018-02-13T18:33:48.633Z,56.10
2018-02-13T18:36:16.018Z,54.33
2018-02-13T18:38:43.407Z,57.20
2018-02-13T18:41:10.846Z,70.40
2018-02-13T18:43:38.276Z,61.67
2018-02-13T18:46:05.678Z,65.60
2018-02-13T18:48:33.120Z,73.53
2018-02-13T18:51:00.514Z,77.87
2018-02-13T18:53:27.938Z,96.77
2018-02-13T18:55:55.373Z,97.37
2018-02-13T18:58:22.887Z,108.67
2018-02-13T19:00:50.278Z,109.73
2018-02-13T19:03:17.718Z,115.37
2018-02-13T19:05:45.138Z,106.63
2018-02-13T19:08:12.574Z,107.57
2018-02-13T19:10:40.007Z,85.77
2018-02-13T19:13:07.422Z,86.20
2018-02-13T19:15:34.858Z,86.80
2018-02-13T19:18:02.304Z,82.33
2018-02-13T19:20:29.730Z,91.37
2018-02-13T19:22:57.184Z,88.20
2018-02-13T19:25:24.647Z,84.13
2018-02-13T19:27:52.117Z,79.60
2018-02-13T19:30:19.527Z,77.60
2018-02-13T19:32:46.975Z,88.53
2018-02-13T19:35:14.365Z,138.27
2018-02-13T19:37:41.799Z,134.57
2018-02-13T19:40:09.243Z,129.73
2018-02-13T19:42:36.828Z,128.77
2018-02-13T19:45:05.829Z,126.87
2018-02-13T19:47:33.266Z,125.63
2018-02-13T19:50:00.882Z,116.37
2018-02-13T19:52:28.286Z,103.30
2018-02-13T19:54:55.698Z,112.30
2018-02-13T19:57:23.133Z,110.43
2018-02-13T19:59:50.537Z,109.30
2018-02-13T20:02:17.942Z,107.40
2018-02-13T20:04:45.343Z,109.33
2018-02-13T20:07:12.778Z,103.17
2018-02-13T20:09:40.177Z,109.77
2018-02-13T20:12:07.574Z,103.77
2018-02-13T20:14:35.014Z,94.27
2018-02-13T20:17:02.438Z,138.87
2018-02-13T20:19:29.830Z,111.10
2018-02-13T20:21:57.225Z,153.17
2018-02-13T20:24:25.474Z,105.90
2018-02-13T20:26:52.894Z,119.97
2018-02-13T20:29:20.321Z,113.93
2018-02-13T20:31:47.744Z,118.93
2018-02-13T20:34:15.239Z,97.23
2018-02-13T20:36:42.742Z,135.43
2018-02-13T20:39:10.149Z,105.67
2018-02-13T20:41:38.586Z,110.20
2018-02-13T20:44:06.139Z,122.60
2018-02-13T20:46:33.555Z,102.97
2018-02-13T20:49:00.991Z,112.77
2018-02-13T20:51:28.399Z,114.93
2018-02-13T20:53:55.843Z,97.30
2018-02-13T20:56:23.246Z,128.77
2018-02-13T20:58:50.708Z,165.70
2018-02-13T21:01:18.107Z,141.83
2018-02-13T21:03:46.444Z,141.20
